Time;durP1;ratioP1;P1;durP2;ratioP2;P2;SDS_P1;SDS_P2;PMS_P1;PMS_P2;Temp;Humidity;BMP_temperature;BMP_pressure;BME280_temperature;BME280_humidity;BME280_pressure;Samples;Min_cycle;Max_cycle;Signal;HPM_P1;HPM_P2
2023/03/17 00:02:30;;;;;;;46.90;21.40;;;;;;;-2.26;77.15;101419.30;103686;280;38295;-70
2023/03/17 00:05:09;;;;;;;42.80;20.70;;;;;;;-2.30;77.41;101421.73;103686;280;39992;-69
2023/03/17 00:07:43;;;;;;;45.80;22.20;;;;;;;-2.32;77.44;101426.45;103676;280;38413;-70
2023/03/17 00:10:22;;;;;;;39.90;20.40;;;;;;;-2.35;77.44;101433.20;103703;280;38726;-70
2023/03/17 00:12:56;;;;;;;41.30;21.30;;;;;;;-2.39;77.35;101431.04;103630;280;39450;-70
2023/03/17 00:15:35;;;;;;;44.30;22.70;;;;;;;-2.40;77.56;101426.04;103654;281;38544;-70
2023/03/17 00:18:13;;;;;;;45.50;21.90;;;;;;;-2.42;77.55;101426.67;103665;269;38568;-69
2023/03/17 00:20:47;;;;;;;44.20;22.50;;;;;;;-2.45;77.48;101423.84;103708;280;38525;-69
2023/03/17 00:23:23;;;;;;;45.80;21.60;;;;;;;-2.52;77.58;101416.60;103572;280;175803;-71
2023/03/17 00:25:57;;;;;;;43.30;20.90;;;;;;;-2.59;77.41;101409.90;103704;280;40038;-72
2023/03/17 00:28:31;;;;;;;41.40;20.20;;;;;;;-2.64;77.48;101408.39;103560;280;176071;-72
2023/03/17 00:31:12;;;;;;;40.80;22.40;;;;;;;-2.64;77.70;101408.88;103695;280;39931;-70
2023/03/17 00:33:46;;;;;;;45.10;23.40;;;;;;;-2.64;77.91;101408.36;103666;280;39435;-70
2023/03/17 00:36:22;;;;;;;44.50;22.60;;;;;;;-2.63;78.00;101404.64;103752;280;39665;-70
2023/03/17 00:38:57;;;;;;;48.80;24.10;;;;;;;-2.63;77.96;101402.95;103676;280;38363;-70
2023/03/17 00:41:31;;;;;;;44.70;23.20;;;;;;;-2.66;77.95;101398.73;103759;279;39073;-71
2023/03/17 00:44:05;;;;;;;48.30;22.80;;;;;;;-2.70;78.06;101402.71;103703;280;38284;-72
2023/03/17 00:46:40;;;;;;;40.40;20.90;;;;;;;-2.72;77.99;101395.48;103671;280;39642;-70
2023/03/17 00:49:18;;;;;;;41.80;21.30;;;;;;;-2.72;78.18;101398.20;103675;280;38738;-71
2023/03/17 00:51:53;;;;;;;48.80;22.80;;;;;;;-2.74;78.10;101390.96;103614;280;175786;-70
2023/03/17 00:54:26;;;;;;;43.40;22.40;;;;;;;-2.75;78.40;101388.54;103578;280;38334;-72
2023/03/17 00:57:00;;;;;;;49.10;22.20;;;;;;;-2.76;78.35;101393.97;103709;280;38275;-70
2023/03/17 00:59:39;;;;;;;44.60;22.70;;;;;;;-2.80;78.27;101392.31;103701;280;38790;-68
2023/03/17 01:02:14;;;;;;;45.10;21.50;;;;;;;-2.84;78.24;101389.09;103573;281;38809;-70
2023/03/17 01:04:48;;;;;;;47.90;22.10;;;;;;;-2.87;78.39;101386.79;103713;280;38446;-72
2023/03/17 01:07:23;;;;;;;41.30;21.00;;;;;;;-2.85;78.38;101385.81;103678;280;39454;-69
2023/03/17 01:09:57;;;;;;;44.20;22.70;;;;;;;-2.84;78.52;101385.86;103701;280;39426;-68
2023/03/17 01:12:32;;;;;;;50.00;24.00;;;;;;;-2.86;78.55;101383.93;103676;280;39101;-69
2023/03/17 01:15:07;;;;;;;46.10;25.00;;;;;;;-2.90;78.29;101378.34;103568;280;173316;-71
2023/03/17 01:17:41;;;;;;;48.30;23.20;;;;;;;-2.93;78.32;101380.29;103568;281;38431;-72
2023/03/17 01:20:20;;;;;;;49.90;22.60;;;;;;;-2.98;78.46;101378.40;103676;280;38277;-68
2023/03/17 01:22:54;;;;;;;43.00;23.00;;;;;;;-3.02;78.47;101372.45;103700;280;38866;-69
2023/03/17 01:25:28;;;;;;;45.30;23.30;;;;;;;-3.06;78.53;101370.28;103606;280;176122;-68
2023/03/17 01:28:02;;;;;;;44.70;23.30;;;;;;;-3.09;78.55;101365.93;103663;280;39428;-70
2023/03/17 01:30:39;;;;;;;48.70;24.40;;;;;;;-3.07;78.77;101363.73;103567;280;38901;-70
2023/03/17 01:33:13;;;;;;;48.20;25.10;;;;;;;-3.08;78.79;101364.73;103679;280;38807;-71
2023/03/17 01:35:47;;;;;;;47.80;25.10;;;;;;;-3.13;78.92;101366.48;103695;279;38530;-72
2023/03/17 01:38:21;;;;;;;52.30;24.30;;;;;;;-3.15;78.90;101368.45;103688;280;38263;-72
2023/03/17 01:40:55;;;;;;;49.80;23.40;;;;;;;-3.16;78.99;101370.13;103720;280;39505;-69
2023/03/17 01:43:29;;;;;;;49.70;24.30;;;;;;;-3.17;79.07;101369.73;103675;280;38836;-69
2023/03/17 01:46:28;;;;;;;51.50;23.20;;;;;;;-3.18;79.18;101370.59;103703;280;39571;-70
2023/03/17 01:49:11;;;;;;;49.40;25.30;;;;;;;-3.17;79.31;101375.05;103641;280;38881;-70
2023/03/17 01:51:52;;;;;;;46.90;23.60;;;;;;;-3.16;79.27;101378.64;103700;280;38855;-72
2023/03/17 01:54:29;;;;;;;46.50;23.00;;;;;;;-3.20;79.23;101377.15;103659;280;39414;-72
2023/03/17 01:57:08;;;;;;;52.60;26.20;;;;;;;-3.23;79.16;101379.61;103726;280;40270;-68
2023/03/17 01:59:44;;;;;;;50.10;25.00;;;;;;;-3.28;79.15;101380.14;103683;280;39646;-71
2023/03/17 02:02:20;;;;;;;49.10;24.50;;;;;;;-3.31;79.04;101380.69;103695;280;38468;-70
2023/03/17 02:04:54;;;;;;;45.30;22.80;;;;;;;-3.32;79.42;101378.95;103731;280;38310;-70
2023/03/17 02:07:28;;;;;;;45.40;25.50;;;;;;;-3.30;79.38;101373.90;103692;280;38302;-71
2023/03/17 02:10:02;;;;;;;51.60;24.90;;;;;;;-3.31;79.43;101374.70;103771;280;38423;-71
2023/03/17 02:12:36;;;;;;;48.90;26.70;;;;;;;-3.33;79.47;101374.84;103720;280;38249;-68
2023/03/17 02:15:12;;;;;;;51.50;26.00;;;;;;;-3.35;79.50;101378.70;103701;280;38684;-71
2023/03/17 02:17:46;;;;;;;51.80;26.10;;;;;;;-3.38;79.52;101385.58;103670;280;39156;-72
2023/03/17 02:21:02;;;;;;;47.60;24.00;;;;;;;-3.39;79.59;101389.65;103710;280;38409;-71
2023/03/17 02:23:36;;;;;;;47.20;23.10;;;;;;;-3.41;79.58;101387.34;103600;280;38285;-70
2023/03/17 02:26:10;;;;;;;46.30;23.80;;;;;;;-3.42;79.54;101383.23;103722;279;38267;-72
2023/03/17 02:28:45;;;;;;;43.50;24.70;;;;;;;-3.42;79.69;101388.16;103677;280;38591;-72
2023/03/17 02:31:18;;;;;;;47.50;25.60;;;;;;;-3.41;79.78;101390.92;103693;280;38531;-71
2023/03/17 02:33:52;;;;;;;45.60;23.70;;;;;;;-3.44;79.63;101394.94;103677;280;38249;-71
2023/03/17 02:36:26;;;;;;;47.80;23.70;;;;;;;-3.48;79.50;101390.17;103714;280;38406;-68
2023/03/17 02:39:01;;;;;;;49.10;25.20;;;;;;;-3.52;79.63;101386.61;103677;280;39408;-71
2023/03/17 02:41:35;;;;;;;48.70;25.50;;;;;;;-3.54;79.74;101385.55;103707;280;39060;-70
2023/03/17 02:44:09;;;;;;;48.10;25.40;;;;;;;-3.50;79.82;101388.53;103017;280;920798;-71
2023/03/17 02:46:43;;;;;;;48.90;26.40;;;;;;;-3.50;79.85;101390.45;103570;280;40230;-69
2023/03/17 02:49:17;;;;;;;51.50;25.60;;;;;;;-3.53;79.77;101388.96;103695;280;40392;-70
2023/03/17 02:51:50;;;;;;;49.50;25.00;;;;;;;-3.57;79.84;101396.17;103692;280;38250;-68
2023/03/17 02:54:25;;;;;;;47.10;24.80;;;;;;;-3.60;79.77;101395.20;103702;280;38371;-70
2023/03/17 02:56:59;;;;;;;49.30;24.30;;;;;;;-3.64;79.73;101398.47;103674;280;38634;-72
2023/03/17 02:59:33;;;;;;;54.90;25.70;;;;;;;-3.65;79.71;101403.73;103720;280;38985;-70
2023/03/17 03:02:07;;;;;;;47.10;25.70;;;;;;;-3.65;79.87;101403.74;103713;280;38236;-71
2023/03/17 03:04:43;;;;;;;48.20;26.50;;;;;;;-3.67;79.80;101408.09;103682;280;38387;-71
2023/03/17 03:07:17;;;;;;;51.90;27.00;;;;;;;-3.69;79.65;101410.56;103553;269;176149;-71
2023/03/17 03:09:51;;;;;;;47.40;24.80;;;;;;;-3.71;79.84;101416.45;103665;280;40020;-70
2023/03/17 03:12:25;;;;;;;47.60;24.10;;;;;;;-3.75;79.95;101421.09;103672;280;38968;-72
2023/03/17 03:14:59;;;;;;;49.70;24.60;;;;;;;-3.77;79.91;101418.60;103553;281;38963;-70
2023/03/17 03:17:33;;;;;;;46.30;24.40;;;;;;;-3.77;80.15;101424.61;103557;280;38426;-70
2023/03/17 03:20:11;;;;;;;46.40;25.40;;;;;;;-3.76;80.08;101426.34;103702;280;40206;-71
2023/03/17 03:22:45;;;;;;;48.20;24.60;;;;;;;-3.74;80.19;101430.84;103691;280;39466;-71
2023/03/17 03:25:19;;;;;;;47.20;25.50;;;;;;;-3.74;80.30;101434.08;103676;280;38356;-70
2023/03/17 03:27:53;;;;;;;48.40;25.00;;;;;;;-3.77;80.22;101435.33;103536;280;39303;-72
2023/03/17 03:30:27;;;;;;;43.90;23.60;;;;;;;-3.83;80.11;101432.39;103677;280;39086;-68
2023/03/17 03:33:00;;;;;;;46.10;23.00;;;;;;;-3.86;80.01;101427.66;103666;280;38559;-68
2023/03/17 03:35:35;;;;;;;43.30;23.30;;;;;;;-3.88;80.08;101428.60;103690;268;39395;-69
2023/03/17 03:38:08;;;;;;;49.80;25.60;;;;;;;-3.88;80.16;101434.25;103667;280;39648;-69
2023/03/17 03:40:43;;;;;;;44.40;24.70;;;;;;;-3.88;80.33;101436.11;103691;280;38402;-73
2023/03/17 03:43:16;;;;;;;50.10;25.20;;;;;;;-3.87;80.39;101433.24;103703;280;39721;-71
2023/03/17 03:45:50;;;;;;;50.20;25.80;;;;;;;-3.88;80.42;101432.04;103690;280;39432;-71
2023/03/17 03:48:24;;;;;;;47.70;25.10;;;;;;;-3.89;80.32;101436.60;103682;280;38563;-71
2023/03/17 03:51:01;;;;;;;45.70;24.70;;;;;;;-3.88;80.50;101431.02;103700;280;38901;-70
2023/03/17 03:53:34;;;;;;;51.30;25.30;;;;;;;-3.88;80.48;101424.85;103682;280;38282;-68
2023/03/17 03:56:09;;;;;;;51.20;26.20;;;;;;;-3.87;80.55;101419.79;103683;280;40218;-71
2023/03/17 03:58:43;;;;;;;50.50;25.70;;;;;;;-3.86;80.51;101419.15;103716;280;38253;-71
2023/03/17 04:01:18;;;;;;;50.00;26.20;;;;;;;-3.86;80.44;101423.22;103703;280;38256;-73
2023/03/17 04:03:52;;;;;;;50.60;24.60;;;;;;;-3.90;80.42;101420.86;103668;280;39539;-72
2023/03/17 04:06:26;;;;;;;47.50;24.40;;;;;;;-3.94;80.36;101415.44;103667;280;38326;-72
2023/03/17 04:08:59;;;;;;;43.90;25.10;;;;;;;-3.97;80.32;101418.41;103672;280;38810;-72
2023/03/17 04:11:33;;;;;;;44.00;24.40;;;;;;;-3.99;80.37;101417.65;103577;281;38290;-70
2023/03/17 04:14:07;;;;;;;47.50;25.10;;;;;;;-3.98;80.48;101414.98;103678;280;39690;-70
2023/03/17 04:16:47;;;;;;;46.60;24.90;;;;;;;-3.97;80.71;101414.66;103683;280;38842;-68
2023/03/17 04:19:25;;;;;;;53.60;27.20;;;;;;;-3.96;80.79;101414.16;103663;280;38879;-68
2023/03/17 04:21:59;;;;;;;51.40;26.00;;;;;;;-3.98;80.80;101419.05;103691;279;38286;-71
2023/03/17 04:24:33;;;;;;;47.70;25.50;;;;;;;-4.00;80.76;101420.00;103663;280;38863;-72
2023/03/17 04:27:08;;;;;;;44.60;24.70;;;;;;;-4.01;80.92;101428.98;103677;280;38262;-70
2023/03/17 04:29:43;;;;;;;50.00;25.90;;;;;;;-4.00;81.06;101429.70;103731;280;38250;-71
2023/03/17 04:32:16;;;;;;;46.50;24.00;;;;;;;-3.99;80.94;101428.38;103674;280;38548;-71
2023/03/17 04:34:50;;;;;;;44.90;24.90;;;;;;;-4.02;80.84;101422.98;103728;280;38778;-69
2023/03/17 04:37:24;;;;;;;46.30;26.10;;;;;;;-4.02;80.81;101427.73;103651;280;38562;-72
2023/03/17 04:39:57;;;;;;;44.40;24.60;;;;;;;-4.04;80.84;101432.95;103721;280;38868;-71
2023/03/17 04:42:31;;;;;;;47.50;24.90;;;;;;;-4.07;80.73;101437.08;103712;279;39434;-70
2023/03/17 04:45:08;;;;;;;40.40;23.00;;;;;;;-4.08;80.92;101436.89;103719;280;38227;-70
2023/03/17 04:47:42;;;;;;;42.80;23.20;;;;;;;-4.05;81.04;101442.79;103668;280;39638;-70
2023/03/17 04:50:16;;;;;;;40.30;23.20;;;;;;;-4.02;81.00;101439.34;103680;280;38316;-72
2023/03/17 04:52:50;;;;;;;43.40;24.70;;;;;;;-4.00;81.14;101433.60;103695;280;40233;-69
2023/03/17 04:55:24;;;;;;;46.20;25.30;;;;;;;-4.01;80.90;101428.80;103657;280;39937;-68
2023/03/17 04:57:58;;;;;;;44.20;24.50;;;;;;;-4.02;81.38;101427.09;103040;269;920986;-72
2023/03/17 05:00:37;;;;;;;40.00;24.10;;;;;;;-4.00;81.60;101418.12;103584;280;38787;-73
2023/03/17 05:03:11;;;;;;;43.90;23.60;;;;;;;-3.97;81.77;101410.06;103716;280;38458;-73
2023/03/17 05:05:47;;;;;;;41.40;23.90;;;;;;;-3.90;81.87;101416.42;103680;280;38424;-69
2023/03/17 05:08:22;;;;;;;41.10;24.50;;;;;;;-3.84;81.85;101421.92;103676;280;39752;-70
2023/03/17 05:11:00;;;;;;;43.60;23.90;;;;;;;-3.79;81.97;101424.36;103726;280;39422;-69
2023/03/17 05:13:34;;;;;;;47.90;25.70;;;;;;;-3.76;82.03;101426.66;103712;280;39737;-71
2023/03/17 05:16:09;;;;;;;45.60;25.30;;;;;;;-3.70;82.21;101435.93;103694;280;38427;-72
2023/03/17 05:18:44;;;;;;;42.10;22.90;;;;;;;-3.62;82.41;101446.97;103675;280;38566;-70
2023/03/17 05:21:17;;;;;;;40.90;22.90;;;;;;;-3.54;82.58;101454.41;103696;280;38316;-68
2023/03/17 05:23:51;;;;;;;40.00;23.10;;;;;;;-3.48;82.72;101455.86;103692;280;38514;-69
2023/03/17 05:26:26;;;;;;;40.80;23.90;;;;;;;-3.40;82.80;101456.65;103613;281;38374;-72
2023/03/17 05:29:00;;;;;;;45.20;24.70;;;;;;;-3.28;82.95;101460.14;103730;296;38329;-71
2023/03/17 05:31:34;;;;;;;41.10;24.60;;;;;;;-3.20;83.06;101459.42;103722;280;38279;-72
2023/03/17 05:34:08;;;;;;;40.50;24.30;;;;;;;-3.12;83.10;101460.02;103663;280;38355;-72
2023/03/17 05:36:50;;;;;;;37.80;23.00;;;;;;;-3.05;83.15;101461.12;103666;280;38278;-68
2023/03/17 05:39:27;;;;;;;39.70;23.50;;;;;;;-2.96;83.02;101463.14;103684;280;38871;-68
2023/03/17 05:42:07;;;;;;;42.90;23.40;;;;;;;-2.88;83.18;101463.59;103668;280;38462;-70
2023/03/17 05:44:42;;;;;;;42.10;24.30;;;;;;;-2.74;83.37;101469.38;103605;280;176066;-71
2023/03/17 05:47:16;;;;;;;46.40;25.20;;;;;;;-2.59;83.54;101474.65;103678;280;39492;-71
2023/03/17 05:49:50;;;;;;;47.00;26.20;;;;;;;-2.41;83.76;101470.95;103694;280;38974;-72
2023/03/17 05:52:24;;;;;;;44.40;26.00;;;;;;;-2.21;84.16;101480.98;103691;280;38673;-71
2023/03/17 05:54:58;;;;;;;42.00;25.60;;;;;;;-1.79;85.42;101476.30;103703;280;38327;-72
2023/03/17 05:57:32;;;;;;;36.10;22.40;;;;;;;-0.60;88.47;101474.94;103244;280;630059;-73
2023/03/17 06:00:11;;;;;;;37.20;23.20;;;;;;;1.14;91.86;101472.00;103705;280;39848;-72
2023/03/17 06:02:45;;;;;;;38.10;22.60;;;;;;;2.70;89.98;101462.97;103748;280;38489;-71
2023/03/17 06:05:20;;;;;;;39.40;24.60;;;;;;;4.08;85.18;101453.86;103737;280;39409;-70
2023/03/17 06:07:53;;;;;;;38.00;22.90;;;;;;;5.24;80.98;101453.59;103695;280;39680;-72
2023/03/17 06:10:27;;;;;;;35.00;22.80;;;;;;;6.08;76.67;101443.89;103690;280;38368;-73
2023/03/17 06:13:03;;;;;;;35.70;22.70;;;;;;;6.91;73.84;101439.20;103718;280;38751;-74
2023/03/17 06:15:37;;;;;;;35.00;22.00;;;;;;;7.38;69.97;101439.94;103722;280;39744;-74
2023/03/17 06:18:11;;;;;;;32.20;20.50;;;;;;;7.04;65.80;101437.05;103691;280;38910;-74
2023/03/17 06:20:45;;;;;;;33.40;21.70;;;;;;;6.44;64.22;101437.20;103720;280;38643;-71
2023/03/17 06:23:19;;;;;;;33.30;20.70;;;;;;;5.97;64.22;101441.15;103720;280;39695;-71
2023/03/17 06:25:53;;;;;;;33.20;21.40;;;;;;;5.71;64.38;101444.44;103738;280;38837;-72
2023/03/17 06:28:27;;;;;;;33.40;20.20;;;;;;;5.80;65.54;101443.91;103722;280;39002;-72
2023/03/17 06:31:00;;;;;;;32.30;19.80;;;;;;;5.79;64.45;101443.73;103726;280;38566;-72
2023/03/17 06:33:34;;;;;;;30.20;21.00;;;;;;;6.17;66.06;101444.04;103686;280;39428;-69
2023/03/17 06:36:09;;;;;;;27.00;18.20;;;;;;;6.52;64.32;101447.74;103723;280;39289;-72
2023/03/17 06:38:44;;;;;;;28.50;18.40;;;;;;;6.42;63.36;101451.77;103660;280;38284;-74
2023/03/17 06:41:18;;;;;;;30.20;17.40;;;;;;;6.24;62.66;101456.32;103684;280;38902;-72
2023/03/17 06:43:52;;;;;;;29.40;17.10;;;;;;;6.08;62.31;101458.96;103687;280;39489;-71
2023/03/17 06:46:26;;;;;;;26.80;17.00;;;;;;;6.10;62.76;101457.23;103677;280;38557;-72
2023/03/17 06:49:00;;;;;;;27.50;15.10;;;;;;;6.58;62.99;101456.04;103686;280;38266;-70
2023/03/17 06:51:36;;;;;;;26.00;14.80;;;;;;;7.11;62.52;101458.88;103717;280;38698;-74
2023/03/17 06:54:10;;;;;;;23.60;15.30;;;;;;;7.54;61.90;101456.65;103674;280;39645;-71
2023/03/17 06:56:44;;;;;;;23.30;13.30;;;;;;;7.67;59.39;101456.02;103682;280;38503;-73
2023/03/17 06:59:18;;;;;;;20.70;12.60;;;;;;;7.42;57.76;101454.31;103707;280;38300;-72
2023/03/17 07:01:52;;;;;;;21.40;13.60;;;;;;;7.20;57.33;101457.26;103652;280;38869;-72
2023/03/17 07:04:26;;;;;;;22.20;12.90;;;;;;;7.38;58.61;101459.04;103719;280;39032;-71
2023/03/17 07:07:01;;;;;;;21.50;13.00;;;;;;;7.93;58.32;101454.06;103685;280;39145;-70
2023/03/17 07:09:36;;;;;;;18.90;12.50;;;;;;;8.28;57.53;101455.95;103681;280;39916;-72
2023/03/17 07:12:11;;;;;;;19.40;11.60;;;;;;;8.61;55.75;101449.15;103673;280;40237;-72
2023/03/17 07:14:45;;;;;;;16.60;11.40;;;;;;;8.76;55.43;101446.01;103668;280;38394;-72
2023/03/17 07:17:19;;;;;;;16.30;11.20;;;;;;;8.70;54.43;101437.02;103670;280;38459;-72
2023/03/17 07:19:53;;;;;;;20.40;12.00;;;;;;;8.54;53.67;101440.90;103583;280;175394;-73
2023/03/17 07:22:27;;;;;;;17.20;11.40;;;;;;;8.57;52.57;101445.38;103673;280;38545;-72
2023/03/17 07:25:01;;;;;;;17.30;11.40;;;;;;;8.79;52.50;101442.31;103672;280;39477;-73
2023/03/17 07:27:35;;;;;;;18.50;12.70;;;;;;;9.22;52.97;101444.64;103679;280;38374;-72
2023/03/17 07:30:13;;;;;;;20.30;12.30;;;;;;;9.86;52.73;101433.64;103685;280;38281;-72
2023/03/17 07:32:47;;;;;;;21.10;13.20;;;;;;;10.32;50.86;101433.85;103693;280;40092;-73
2023/03/17 07:35:22;;;;;;;20.60;13.50;;;;;;;10.57;50.35;101434.40;103700;280;38513;-70
2023/03/17 07:37:56;;;;;;;20.10;13.40;;;;;;;10.78;49.00;101433.77;103458;280;40161;-73
2023/03/17 07:40:30;;;;;;;21.50;13.40;;;;;;;11.11;48.97;101425.87;103723;280;38277;-71
2023/03/17 07:43:04;;;;;;;20.50;13.70;;;;;;;11.68;48.51;101420.12;103661;280;39150;-73
2023/03/17 07:45:37;;;;;;;17.80;12.20;;;;;;;12.40;48.20;101418.52;103580;280;175001;-73
2023/03/17 07:48:11;;;;;;;19.10;12.60;;;;;;;13.23;46.61;101424.59;103630;281;39386;-73
2023/03/17 07:50:46;;;;;;;18.70;12.40;;;;;;;13.83;45.03;101421.88;103640;280;38789;-72
2023/03/17 07:53:20;;;;;;;17.20;12.10;;;;;;;14.33;42.99;101421.69;103671;280;38496;-72
2023/03/17 07:55:53;;;;;;;17.30;11.90;;;;;;;14.89;41.86;101421.87;103741;280;38688;-73
2023/03/17 07:58:27;;;;;;;16.20;11.40;;;;;;;15.55;40.29;101415.34;103693;280;38929;-73
2023/03/17 08:01:01;;;;;;;14.00;10.70;;;;;;;16.05;39.11;101406.30;103699;280;39420;-73
2023/03/17 08:03:35;;;;;;;16.90;10.40;;;;;;;16.47;37.31;101406.36;103680;280;38349;-73
2023/03/17 08:06:10;;;;;;;14.20;11.00;;;;;;;16.89;37.20;101407.58;103686;280;38465;-74
2023/03/17 08:08:44;;;;;;;16.50;11.30;;;;;;;17.51;36.26;101405.09;103614;280;38383;-75
2023/03/17 08:11:19;;;;;;;14.40;10.60;;;;;;;18.06;35.35;101398.74;103721;280;40311;-73
2023/03/17 08:13:53;;;;;;;14.40;10.70;;;;;;;18.45;34.08;101397.36;103688;280;39260;-73
2023/03/17 08:16:27;;;;;;;12.30;9.80;;;;;;;18.55;33.42;101398.22;103705;280;39841;-75
2023/03/17 08:19:02;;;;;;;13.40;10.30;;;;;;;18.83;32.25;101399.85;103640;280;38487;-74
2023/03/17 08:21:36;;;;;;;13.60;9.40;;;;;;;19.10;31.34;101400.25;103688;280;39699;-73
2023/03/17 08:24:11;;;;;;;11.90;9.10;;;;;;;19.45;31.47;101405.52;103624;280;39407;-74
2023/03/17 08:26:45;;;;;;;13.20;9.60;;;;;;;19.45;30.76;101405.83;103718;280;38593;-71
2023/03/17 08:29:19;;;;;;;13.00;9.50;;;;;;;19.17;30.56;101407.98;103675;280;38277;-73
2023/03/17 08:31:53;;;;;;;12.50;9.80;;;;;;;18.71;30.30;101410.23;103696;280;38861;-72
2023/03/17 08:34:28;;;;;;;12.00;9.00;;;;;;;18.09;30.07;101412.19;103606;280;174762;-72
2023/03/17 08:37:03;;;;;;;14.60;10.10;;;;;;;17.45;30.49;101414.02;103679;280;39566;-74
2023/03/17 08:39:39;;;;;;;12.10;8.80;;;;;;;16.77;31.13;101422.08;103672;280;39913;-74
2023/03/17 08:42:13;;;;;;;11.70;8.80;;;;;;;16.21;31.62;101433.42;103712;280;38422;-73
2023/03/17 08:44:47;;;;;;;12.20;8.80;;;;;;;16.19;32.69;101439.15;103686;280;39055;-73
2023/03/17 08:47:21;;;;;;;11.00;8.80;;;;;;;16.53;32.35;101430.60;103692;280;39388;-73
2023/03/17 08:49:56;;;;;;;12.40;9.00;;;;;;;16.47;31.10;101430.16;103710;269;38774;-73
2023/03/17 08:52:30;;;;;;;13.90;8.40;;;;;;;16.33;31.58;101436.77;103677;280;39418;-73
2023/03/17 08:55:05;;;;;;;12.80;8.40;;;;;;;16.46;31.75;101432.13;103696;280;40105;-73
2023/03/17 08:57:39;;;;;;;11.00;7.90;;;;;;;16.77;32.03;101435.30;103679;280;38898;-73
2023/03/17 09:00:19;;;;;;;13.50;7.90;;;;;;;17.13;31.35;101437.27;103706;280;38832;-74
2023/03/17 09:02:53;;;;;;;10.20;7.90;;;;;;;17.62;30.87;101436.61;103709;280;39684;-73
2023/03/17 09:05:27;;;;;;;12.00;8.00;;;;;;;18.03;30.46;101429.42;103705;280;38884;-73
2023/03/17 09:08:00;;;;;;;9.90;7.40;;;;;;;18.48;30.26;101430.73;103679;280;38830;-73
2023/03/17 09:10:35;;;;;;;11.20;6.90;;;;;;;18.72;28.12;101437.75;103722;269;38448;-74
2023/03/17 09:13:09;;;;;;;9.60;7.30;;;;;;;18.90;28.11;101439.11;103686;280;38410;-75
2023/03/17 09:15:43;;;;;;;10.10;5.70;;;;;;;19.06;28.13;101441.69;103701;280;38251;-74
2023/03/17 09:18:18;;;;;;;8.00;5.30;;;;;;;19.27;27.94;101435.52;103693;280;39836;-74
2023/03/17 09:20:52;;;;;;;6.90;4.70;;;;;;;19.62;28.19;101435.66;103728;280;38295;-73
2023/03/17 09:23:26;;;;;;;6.10;4.80;;;;;;;19.93;27.27;101432.27;103689;280;38488;-74
2023/03/17 09:26:01;;;;;;;7.30;5.00;;;;;;;20.04;26.72;101430.85;103705;280;39140;-75
2023/03/17 09:28:35;;;;;;;5.80;4.00;;;;;;;20.05;26.03;101427.44;103689;280;40141;-74
2023/03/17 09:31:10;;;;;;;7.80;4.40;;;;;;;20.19;25.99;101424.26;103686;280;38234;-73
2023/03/17 09:33:44;;;;;;;6.90;4.40;;;;;;;20.40;25.83;101420.64;103672;280;38943;-74
2023/03/17 09:36:18;;;;;;;6.70;3.90;;;;;;;20.55;24.82;101415.64;103692;268;38506;-73
2023/03/17 09:38:52;;;;;;;5.50;4.00;;;;;;;20.51;24.52;101415.54;103581;281;38804;-73
2023/03/17 09:41:48;;;;;;;6.60;4.50;;;;;;;20.51;24.84;101405.31;103558;280;39387;-73
2023/03/17 09:44:36;;;;;;;6.40;4.80;;;;;;;20.62;24.44;101401.56;103659;280;38851;-73
2023/03/17 09:47:16;;;;;;;;;;;;;;;20.49;24.33;101401.14;103693;280;40154;-73
2023/03/17 09:49:51;;;;;;;6.30;4.10;;;;;;;20.30;24.86;101390.42;103690;280;39589;-73
2023/03/17 09:52:27;;;;;;;6.70;3.90;;;;;;;20.39;24.35;101389.56;103653;280;38500;-73
2023/03/17 09:55:02;;;;;;;6.20;4.20;;;;;;;20.28;24.57;101386.70;103683;280;39563;-73
2023/03/17 09:57:36;;;;;;;5.80;3.40;;;;;;;20.14;23.07;101379.73;103694;280;39430;-73
2023/03/17 10:00:18;;;;;;;5.70;3.90;;;;;;;19.62;24.53;101373.20;103703;280;38522;-74
2023/03/17 10:02:52;;;;;;;6.10;3.40;;;;;;;19.34;25.17;101374.48;103692;280;39421;-74
2023/03/17 10:05:28;;;;;;;6.30;3.90;;;;;;;18.98;24.98;101369.84;103711;280;38515;-73
2023/03/17 10:08:09;;;;;;;5.50;3.70;;;;;;;18.41;25.01;101372.27;103625;280;38614;-74
2023/03/17 10:10:47;;;;;;;4.90;3.60;;;;;;;17.76;25.61;101372.73;103709;280;39467;-73
2023/03/17 10:13:31;;;;;;;6.80;4.00;;;;;;;17.20;26.28;101373.83;103615;280;38593;-72
2023/03/17 10:16:08;;;;;;;5.20;3.70;;;;;;;16.46;25.93;101373.48;103718;280;38345;-74
2023/03/17 10:18:50;;;;;;;8.10;3.80;;;;;;;15.85;27.07;101366.91;103709;280;38655;-74
2023/03/17 10:21:25;;;;;;;6.30;3.30;;;;;;;15.19;27.06;101367.40;103695;280;38516;-71
2023/03/17 10:23:59;;;;;;;7.30;4.10;;;;;;;14.64;28.00;101366.81;103669;280;38247;-71
2023/03/17 10:26:38;;;;;;;6.00;3.60;;;;;;;14.28;28.81;101366.03;103695;280;38817;-73
2023/03/17 10:29:16;;;;;;;5.90;3.30;;;;;;;14.00;29.05;101367.41;103709;280;39498;-74
2023/03/17 10:31:51;;;;;;;6.00;4.00;;;;;;;13.61;28.73;101365.32;103676;280;38749;-72
2023/03/17 10:34:29;;;;;;;6.10;3.80;;;;;;;13.27;29.57;101360.48;103666;280;38553;-72
2023/03/17 10:37:06;;;;;;;4.40;3.50;;;;;;;13.05;30.34;101362.24;103663;280;38522;-73
2023/03/17 10:39:46;;;;;;;7.20;4.80;;;;;;;12.96;31.03;101369.89;103561;281;38394;-74
2023/03/17 10:42:26;;;;;;;6.60;4.30;;;;;;;12.68;30.02;101358.87;103703;280;39440;-73
2023/03/17 10:45:02;;;;;;;6.40;4.50;;;;;;;12.33;30.91;101354.35;103738;280;40227;-72
2023/03/17 10:47:37;;;;;;;8.70;4.70;;;;;;;12.12;31.14;101353.20;103655;280;38697;-72
2023/03/17 10:50:23;;;;;;;7.50;4.70;;;;;;;11.87;31.68;101350.91;103640;280;175343;-72
2023/03/17 10:53:00;;;;;;;8.90;4.80;;;;;;;11.79;32.44;101353.38;103677;280;38276;-73
2023/03/17 10:55:41;;;;;;;7.60;4.60;;;;;;;11.71;32.38;101360.58;103710;280;38263;-73
2023/03/17 10:58:20;;;;;;;8.40;4.90;;;;;;;11.55;32.54;101357.35;103685;280;39386;-73
2023/03/17 11:00:59;;;;;;;8.90;5.20;;;;;;;11.42;32.85;101357.52;103696;280;39715;-72
2023/03/17 11:03:32;;;;;;;;;;;;;;;11.28;33.09;101354.36;103698;280;38859;-72
2023/03/17 11:06:08;;;;;;;8.10;4.80;;;;;;;11.11;33.25;101361.78;103698;280;38677;-73
2023/03/17 11:08:45;;;;;;;8.00;4.90;;;;;;;10.96;33.61;101358.48;103583;280;175240;-72
2023/03/17 11:11:28;;;;;;;7.70;4.80;;;;;;;10.85;33.74;101358.02;103706;268;39890;-72
2023/03/17 11:14:12;;;;;;;8.60;4.80;;;;;;;10.79;34.08;101354.34;103581;280;175250;-72
2023/03/17 11:16:54;;;;;;;8.00;4.90;;;;;;;10.72;34.33;101354.84;103705;280;38640;-72
2023/03/17 11:19:34;;;;;;;9.20;5.30;;;;;;;10.69;34.74;101349.14;103652;280;38346;-73
2023/03/17 11:22:13;;;;;;;7.30;5.00;;;;;;;10.52;34.36;101345.70;103687;280;38263;-72
2023/03/17 11:24:57;;;;;;;7.30;4.90;;;;;;;10.39;34.86;101344.41;103704;280;39633;-73
2023/03/17 11:27:35;;;;;;;9.10;5.20;;;;;;;10.35;35.07;101338.76;103698;280;38953;-72
2023/03/17 11:30:30;;;;;;;7.80;4.80;;;;;;;10.38;34.98;101329.27;103677;281;39681;-74
2023/03/17 11:33:10;;;;;;;7.60;4.60;;;;;;;10.37;35.06;101324.23;103695;280;38255;-72
2023/03/17 11:35:54;;;;;;;9.90;4.50;;;;;;;10.41;35.16;101318.58;103711;296;39516;-73
2023/03/17 11:38:29;;;;;;;8.70;4.40;;;;;;;10.43;35.09;101307.70;103679;279;38863;-73
2023/03/17 11:41:26;;;;;;;9.20;4.50;;;;;;;10.43;34.64;101310.48;103688;280;38387;-73
2023/03/17 11:44:45;;;;;;;7.20;4.30;;;;;;;10.33;34.64;101306.69;103676;280;39699;-73
2023/03/17 11:47:30;;;;;;;7.80;4.30;;;;;;;10.27;35.00;101303.52;103623;280;39049;-73
2023/03/17 11:50:11;;;;;;;10.00;4.40;;;;;;;10.24;34.97;101295.55;103710;280;38227;-73
2023/03/17 11:52:55;;;;;;;8.40;4.60;;;;;;;10.20;35.25;101288.30;103667;280;39423;-72
2023/03/17 11:55:31;;;;;;;7.30;4.80;;;;;;;10.19;35.58;101282.90;103705;280;39396;-74